sensor_id;sensor_type;location;lat;lon;timestamp;pressure;altitude;pressure_sealevel;temperature;humidity
43153;BME280;28756;49.064;9.290;2023-04-06T00:01:39;99395.06;;;-2.88;100.00
43153;BME280;28756;49.064;9.290;2023-04-06T00:04:05;99391.66;;;-2.93;100.00
43153;BME280;28756;49.064;9.290;2023-04-06T00:06:32;99389.06;;;-3.01;100.00
43153;BME280;28756;49.064;9.290;2023-04-06T00:08:59;99390.69;;;-3.08;100.00
43153;BME280;28756;49.064;9.290;2023-04-06T00:11:25;99385.63;;;-3.09;100.00
43153;BME280;28756;49.064;9.290;2023-04-06T00:13:51;99387.31;;;-3.07;100.00
43153;BME280;28756;49.064;9.290;2023-04-06T00:16:17;99388.19;;;-3.06;100.00
43153;BME280;28756;49.064;9.290;2023-04-06T00:18:43;99392.44;;;-3.05;100.00
43153;BME280;28756;49.064;9.290;2023-04-06T00:21:12;99389.91;;;-3.05;100.00
43153;BME280;28756;49.064;9.290;2023-04-06T00:23:39;99387.38;;;-3.00;100.00
43153;BME280;28756;49.064;9.290;2023-04-06T00:26:04;99391.59;;;-3.04;100.00
43153;BME280;28756;49.064;9.290;2023-04-06T00:28:30;99389.00;;;-3.10;100.00
43153;BME280;28756;49.064;9.290;2023-04-06T00:30:56;99381.34;;;-3.15;100.00
43153;BME280;28756;49.064;9.290;2023-04-06T00:33:23;99391.50;;;-3.15;100.00
43153;BME280;28756;49.064;9.290;2023-04-06T00:35:49;99387.22;;;-3.22;100.00
43153;BME280;28756;49.064;9.290;2023-04-06T00:38:15;99387.22;;;-3.25;100.00
43153;BME280;28756;49.064;9.290;2023-04-06T00:40:42;99387.22;;;-3.24;100.00
43153;BME280;28756;49.064;9.290;2023-04-06T00:43:11;99379.63;;;-3.19;100.00
43153;BME280;28756;49.064;9.290;2023-04-06T00:45:39;99379.56;;;-3.30;100.00
43153;BME280;28756;49.064;9.290;2023-04-06T00:48:06;99384.66;;;-3.27;100.00
43153;BME280;28756;49.064;9.290;2023-04-06T00:50:32;99369.41;;;-3.28;100.00
43153;BME280;28756;49.064;9.290;2023-04-06T00:52:59;99387.19;;;-3.30;100.00
43153;BME280;28756;49.064;9.290;2023-04-06T00:55:29;99370.22;;;-3.29;100.00
43153;BME280;28756;49.064;9.290;2023-04-06T00:57:58;99364.28;;;-3.33;100.00
43153;BME280;28756;49.064;9.290;2023-04-06T01:00:25;99365.97;;;-3.30;100.00
43153;BME280;28756;49.064;9.290;2023-04-06T01:02:51;99368.59;;;-3.24;100.00
43153;BME280;28756;49.064;9.290;2023-04-06T01:05:16;99363.47;;;-3.29;100.00
43153;BME280;28756;49.064;9.290;2023-04-06T01:07:42;99359.25;;;-3.25;100.00
43153;BME280;28756;49.064;9.290;2023-04-06T01:10:08;99360.94;;;-3.26;100.00
43153;BME280;28756;49.064;9.290;2023-04-06T01:12:34;99364.28;;;-3.33;100.00
43153;BME280;28756;49.064;9.290;2023-04-06T01:15:01;99360.06;;;-3.31;100.00
43153;BME280;28756;49.064;9.290;2023-04-06T01:17:27;99365.13;;;-3.36;100.00
43153;BME280;28756;49.064;9.290;2023-04-06T01:19:54;99363.41;;;-3.37;100.00
43153;BME280;28756;49.064;9.290;2023-04-06T01:22:20;99362.56;;;-3.37;100.00
43153;BME280;28756;49.064;9.290;2023-04-06T01:24:46;99356.59;;;-3.42;100.00
43153;BME280;28756;49.064;9.290;2023-04-06T01:27:12;99361.66;;;-3.42;100.00
43153;BME280;28756;49.064;9.290;2023-04-06T01:29:39;99348.91;;;-3.49;100.00
43153;BME280;28756;49.064;9.290;2023-04-06T01:32:07;99355.69;;;-3.52;100.00
43153;BME280;28756;49.064;9.290;2023-04-06T01:34:33;99351.41;;;-3.58;100.00
43153;BME280;28756;49.064;9.290;2023-04-06T01:36:59;99357.38;;;-3.53;100.00
43153;BME280;28756;49.064;9.290;2023-04-06T01:39:25;99353.13;;;-3.54;100.00
43153;BME280;28756;49.064;9.290;2023-04-06T01:41:51;99342.09;;;-3.56;100.00
43153;BME280;28756;49.064;9.290;2023-04-06T01:44:18;99349.72;;;-3.54;100.00
43153;BME280;28756;49.064;9.290;2023-04-06T01:46:44;99347.22;;;-3.50;100.00
43153;BME280;28756;49.064;9.290;2023-04-06T01:49:11;99348.09;;;-3.47;100.00
43153;BME280;28756;49.064;9.290;2023-04-06T01:51:37;99340.41;;;-3.51;100.00
43153;BME280;28756;49.064;9.290;2023-04-06T01:54:03;99342.13;;;-3.53;100.00
43153;BME280;28756;49.064;9.290;2023-04-06T01:56:29;99347.19;;;-3.57;100.00
43153;BME280;28756;49.064;9.290;2023-04-06T01:58:55;99332.72;;;-3.63;100.00
43153;BME280;28756;49.064;9.290;2023-04-06T02:01:21;99331.84;;;-3.65;100.00
43153;BME280;28756;49.064;9.290;2023-04-06T02:03:47;99336.94;;;-3.67;100.00
43153;BME280;28756;49.064;9.290;2023-04-06T02:06:13;99335.22;;;-3.69;100.00
43153;BME280;28756;49.064;9.290;2023-04-06T02:08:38;99346.28;;;-3.62;100.00
43153;BME280;28756;49.064;9.290;2023-04-06T02:11:04;99342.91;;;-3.65;100.00
43153;BME280;28756;49.064;9.290;2023-04-06T02:13:30;99341.19;;;-3.66;100.00
43153;BME280;28756;49.064;9.290;2023-04-06T02:15:56;99343.69;;;-3.70;100.00
43153;BME280;28756;49.064;9.290;2023-04-06T02:18:22;99343.66;;;-3.76;100.00
43153;BME280;28756;49.064;9.290;2023-04-06T02:20:48;99343.66;;;-3.76;100.00
43153;BME280;28756;49.064;9.290;2023-04-06T02:23:14;99338.56;;;-3.75;100.00
43153;BME280;28756;49.064;9.290;2023-04-06T02:25:40;99336.00;;;-3.81;100.00
43153;BME280;28756;49.064;9.290;2023-04-06T02:28:06;99339.41;;;-3.79;100.00
43153;BME280;28756;49.064;9.290;2023-04-06T02:30:32;99340.28;;;-3.74;100.00
43153;BME280;28756;49.064;9.290;2023-04-06T02:33:00;99335.16;;;-3.77;100.00
43153;BME280;28756;49.064;9.290;2023-04-06T02:35:27;99326.75;;;-3.73;100.00
43153;BME280;28756;49.064;9.290;2023-04-06T02:37:52;99331.81;;;-3.73;100.00
43153;BME280;28756;49.064;9.290;2023-04-06T02:40:18;99330.09;;;-3.75;100.00
43153;BME280;28756;49.064;9.290;2023-04-06T02:42:44;99325.88;;;-3.73;100.00
43153;BME280;28756;49.064;9.290;2023-04-06T02:45:09;99327.59;;;-3.66;100.00
43153;BME280;28756;49.064;9.290;2023-04-06T02:47:35;99318.38;;;-3.55;100.00
43153;BME280;28756;49.064;9.290;2023-04-06T02:50:01;99323.50;;;-3.50;100.00
43153;BME280;28756;49.064;9.290;2023-04-06T02:52:27;99320.09;;;-3.54;100.00
43153;BME280;28756;49.064;9.290;2023-04-06T02:54:52;99321.75;;;-3.57;100.00
43153;BME280;28756;49.064;9.290;2023-04-06T02:57:18;99312.44;;;-3.58;100.00
43153;BME280;28756;49.064;9.290;2023-04-06T02:59:44;99328.47;;;-3.64;100.00
43153;BME280;28756;49.064;9.290;2023-04-06T03:02:09;99326.81;;;-3.63;100.00
43153;BME280;28756;49.064;9.290;2023-04-06T03:04:35;99319.16;;;-3.65;100.00
43153;BME280;28756;49.064;9.290;2023-04-06T03:07:01;99321.69;;;-3.68;100.00
43153;BME280;28756;49.064;9.290;2023-04-06T03:09:26;99324.16;;;-3.74;100.00
43153;BME280;28756;49.064;9.290;2023-04-06T03:11:53;99329.25;;;-3.79;100.00
43153;BME280;28756;49.064;9.290;2023-04-06T03:14:18;99319.94;;;-3.72;100.00
43153;BME280;28756;49.064;9.290;2023-04-06T03:16:48;99324.19;;;-3.73;100.00
43153;BME280;28756;49.064;9.290;2023-04-06T03:19:14;99319.13;;;-3.70;100.00
43153;BME280;28756;49.064;9.290;2023-04-06T03:21:40;99317.41;;;-3.71;100.00
43153;BME280;28756;49.064;9.290;2023-04-06T03:24:07;99324.19;;;-3.71;100.00
43153;BME280;28756;49.064;9.290;2023-04-06T03:26:33;99325.91;;;-3.72;100.00
43153;BME280;28756;49.064;9.290;2023-04-06T03:28:59;99320.78;;;-3.76;100.00
43153;BME280;28756;49.064;9.290;2023-04-06T03:31:26;99322.44;;;-3.78;100.00
43153;BME280;28756;49.064;9.290;2023-04-06T03:33:51;99324.13;;;-3.82;100.00
43153;BME280;28756;49.064;9.290;2023-04-06T03:36:17;99318.19;;;-3.81;100.00
43153;BME280;28756;49.064;9.290;2023-04-06T03:38:43;99324.97;;;-3.83;100.00
43153;BME280;28756;49.064;9.290;2023-04-06T03:41:08;99332.53;;;-3.88;100.00
43153;BME280;28756;49.064;9.290;2023-04-06T03:43:35;99319.84;;;-3.89;100.00
43153;BME280;28756;49.064;9.290;2023-04-06T03:46:00;99327.41;;;-3.94;100.00
43153;BME280;28756;49.064;9.290;2023-04-06T03:48:26;99325.66;;;-3.98;100.00
43153;BME280;28756;49.064;9.290;2023-04-06T03:50:52;99329.91;;;-3.97;100.00
43153;BME280;28756;49.064;9.290;2023-04-06T03:53:17;99329.09;;;-3.96;100.00
43153;BME280;28756;49.064;9.290;2023-04-06T03:55:43;99333.25;;;-4.04;100.00
43153;BME280;28756;49.064;9.290;2023-04-06T03:58:09;99334.91;;;-4.06;100.00
43153;BME280;28756;49.064;9.290;2023-04-06T04:00:35;99335.75;;;-4.09;100.00
43153;BME280;28756;49.064;9.290;2023-04-06T04:03:01;99332.38;;;-4.11;100.00
43153;BME280;28756;49.064;9.290;2023-04-06T04:05:28;99335.69;;;-4.14;100.00
43153;BME280;28756;49.064;9.290;2023-04-06T04:07:53;99330.75;;;-4.03;100.00
43153;BME280;28756;49.064;9.290;2023-04-06T04:10:19;99326.50;;;-4.01;100.00
43153;BME280;28756;49.064;9.290;2023-04-06T04:12:45;99331.59;;;-4.02;100.00
43153;BME280;28756;49.064;9.290;2023-04-06T04:15:11;99336.66;;;-4.02;100.00
43153;BME280;28756;49.064;9.290;2023-04-06T04:17:36;99332.41;;;-4.05;100.00
43153;BME280;28756;49.064;9.290;2023-04-06T04:20:02;99331.50;;;-4.10;100.00
43153;BME280;28756;49.064;9.290;2023-04-06T04:22:28;99330.63;;;-4.15;100.00
43153;BME280;28756;49.064;9.290;2023-04-06T04:24:53;99328.06;;;-4.17;100.00
43153;BME280;28756;49.064;9.290;2023-04-06T04:27:19;99321.34;;;-4.13;100.00
43153;BME280;28756;49.064;9.290;2023-04-06T04:29:46;99325.50;;;-4.18;100.00
43153;BME280;28756;49.064;9.290;2023-04-06T04:32:11;99328.97;;;-4.12;100.00
43153;BME280;28756;49.064;9.290;2023-04-06T04:34:37;99327.25;;;-4.14;100.00
43153;BME280;28756;49.064;9.290;2023-04-06T04:37:06;99326.41;;;-4.13;100.00
43153;BME280;28756;49.064;9.290;2023-04-06T04:39:32;99324.66;;;-4.19;100.00
43153;BME280;28756;49.064;9.290;2023-04-06T04:41:58;99322.13;;;-4.17;100.00
43153;BME280;28756;49.064;9.290;2023-04-06T04:44:24;99322.13;;;-4.20;100.00
43153;BME280;28756;49.064;9.290;2023-04-06T04:46:50;99321.25;;;-4.21;100.00
43153;BME280;28756;49.064;9.290;2023-04-06T04:49:15;99325.50;;;-4.21;100.00
43153;BME280;28756;49.064;9.290;2023-04-06T04:51:41;99320.41;;;-4.23;100.00
43153;BME280;28756;49.064;9.290;2023-04-06T04:54:07;99324.75;;;-4.08;100.00
43153;BME280;28756;49.064;9.290;2023-04-06T04:56:33;99325.66;;;-4.01;100.00
43153;BME280;28756;49.064;9.290;2023-04-06T04:58:58;99331.50;;;-4.10;100.00
43153;BME280;28756;49.064;9.290;2023-04-06T05:01:24;99331.50;;;-4.10;100.00
43153;BME280;28756;49.064;9.290;2023-04-06T05:03:50;99331.53;;;-4.07;100.00
43153;BME280;28756;49.064;9.290;2023-04-06T05:06:16;99329.00;;;-4.07;100.00
43153;BME280;28756;49.064;9.290;2023-04-06T05:08:42;99331.53;;;-4.05;100.00
43153;BME280;28756;49.064;9.290;2023-04-06T05:11:08;99332.41;;;-4.03;100.00
43153;BME280;28756;49.064;9.290;2023-04-06T05:13:34;99334.13;;;-4.01;100.00
43153;BME280;28756;49.064;9.290;2023-04-06T05:16:00;99340.91;;;-4.01;100.00
43153;BME280;28756;49.064;9.290;2023-04-06T05:18:26;99341.78;;;-3.94;100.00
43153;BME280;28756;49.064;9.290;2023-04-06T05:20:52;99342.81;;;-3.75;100.00
43153;BME280;28756;49.064;9.290;2023-04-06T05:23:18;99360.75;;;-3.55;100.00
43153;BME280;28756;49.064;9.290;2023-04-06T05:25:44;99349.03;;;-3.28;100.00
43153;BME280;28756;49.064;9.290;2023-04-06T05:28:09;99345.75;;;-3.10;100.00
43153;BME280;28756;49.064;9.290;2023-04-06T05:30:35;99339.16;;;-2.63;100.00
43153;BME280;28756;49.064;9.290;2023-04-06T05:33:02;99342.63;;;-2.16;100.00
43153;BME280;28756;49.064;9.290;2023-04-06T05:35:27;99350.31;;;-1.71;100.00
43153;BME280;28756;49.064;9.290;2023-04-06T05:37:53;99343.47;;;-1.31;100.00
43153;BME280;28756;49.064;9.290;2023-04-06T05:40:19;99344.25;;;-1.01;100.00
43153;BME280;28756;49.064;9.290;2023-04-06T05:42:44;99336.38;;;-0.53;100.00
43153;BME280;28756;49.064;9.290;2023-04-06T05:45:11;99329.34;;;-0.20;100.00
43153;BME280;28756;49.064;9.290;2023-04-06T05:47:42;99336.38;;;-0.54;100.00
43153;BME280;28756;49.064;9.290;2023-04-06T05:50:10;99333.25;;;0.28;100.00
43153;BME280;28756;49.064;9.290;2023-04-06T05:52:36;99335.56;;;0.57;100.00
43153;BME280;28756;49.064;9.290;2023-04-06T05:55:03;99335.22;;;0.90;100.00
43153;BME280;28756;49.064;9.290;2023-04-06T05:57:29;99335.25;;;1.55;100.00
43153;BME280;28756;49.064;9.290;2023-04-06T05:59:54;99334.56;;;1.42;100.00
43153;BME280;28756;49.064;9.290;2023-04-06T06:02:21;99332.16;;;1.32;100.00
43153;BME280;28756;49.064;9.290;2023-04-06T06:04:47;99338.56;;;1.64;100.00
43153;BME280;28756;49.064;9.290;2023-04-06T06:07:14;99337.84;;;1.54;100.00
43153;BME280;28756;49.064;9.290;2023-04-06T06:09:40;99329.13;;;1.66;100.00
43153;BME280;28756;49.064;9.290;2023-04-06T06:12:06;99332.09;;;1.97;100.00
43153;BME280;28756;49.064;9.290;2023-04-06T06:14:32;99334.03;;;2.36;100.00
43153;BME280;28756;49.064;9.290;2023-04-06T06:16:57;99343.09;;;2.57;100.00
43153;BME280;28756;49.064;9.290;2023-04-06T06:19:23;99338.91;;;2.98;100.00
43153;BME280;28756;49.064;9.290;2023-04-06T06:21:49;99338.13;;;2.93;100.00
43153;BME280;28756;49.064;9.290;2023-04-06T06:24:15;99341.88;;;2.77;100.00
43153;BME280;28756;49.064;9.290;2023-04-06T06:26:41;99331.69;;;3.18;100.00
43153;BME280;28756;49.064;9.290;2023-04-06T06:29:07;99334.38;;;3.52;100.00
43153;BME280;28756;49.064;9.290;2023-04-06T06:31:32;99340.38;;;3.10;100.00
43153;BME280;28756;49.064;9.290;2023-04-06T06:33:58;99336.28;;;3.44;100.00
43153;BME280;28756;49.064;9.290;2023-04-06T06:36:25;99335.50;;;3.40;100.00
43153;BME280;28756;49.064;9.290;2023-04-06T06:38:51;99334.56;;;3.82;100.00
43153;BME280;28756;49.064;9.290;2023-04-06T06:41:17;99339.50;;;4.27;100.00
43153;BME280;28756;49.064;9.290;2023-04-06T06:43:42;99342.47;;;4.47;100.00
43153;BME280;28756;49.064;9.290;2023-04-06T06:46:08;99343.91;;;4.57;100.00
43153;BME280;28756;49.064;9.290;2023-04-06T06:48:34;99341.03;;;4.35;97.43
43153;BME280;28756;49.064;9.290;2023-04-06T06:51:00;99337.09;;;3.84;100.00
43153;BME280;28756;49.064;9.290;2023-04-06T06:53:25;99341.91;;;3.61;100.00
43153;BME280;28756;49.064;9.290;2023-04-06T06:55:51;99341.56;;;4.49;100.00
43153;BME280;28756;49.064;9.290;2023-04-06T06:58:19;99336.72;;;5.01;100.00
43153;BME280;28756;49.064;9.290;2023-04-06T07:00:46;99341.78;;;5.36;97.56
43153;BME280;28756;49.064;9.290;2023-04-06T07:03:11;99339.28;;;5.63;91.45
43153;BME280;28756;49.064;9.290;2023-04-06T07:05:37;99340.75;;;5.42;92.00
43153;BME280;28756;49.064;9.290;2023-04-06T07:08:03;99336.59;;;5.37;90.54
43153;BME280;28756;49.064;9.290;2023-04-06T07:10:29;99343.25;;;5.15;94.50
43153;BME280;28756;49.064;9.290;2023-04-06T07:12:55;99342.00;;;5.28;99.09
43153;BME280;28756;49.064;9.290;2023-04-06T07:15:21;99340.50;;;5.21;97.20
43153;BME280;28756;49.064;9.290;2023-04-06T07:17:47;99335.75;;;4.74;98.10
43153;BME280;28756;49.064;9.290;2023-04-06T07:20:13;99335.31;;;5.51;100.00
43153;BME280;28756;49.064;9.290;2023-04-06T07:22:42;99329.94;;;5.87;100.00
43153;BME280;28756;49.064;9.290;2023-04-06T07:25:08;99335.44;;;6.05;100.00
43153;BME280;28756;49.064;9.290;2023-04-06T07:27:34;99338.53;;;6.43;95.30
43153;BME280;28756;49.064;9.290;2023-04-06T07:29:59;99334.75;;;6.77;90.98
43153;BME280;28756;49.064;9.290;2023-04-06T07:32:25;99331.16;;;7.06;88.36
43153;BME280;28756;49.064;9.290;2023-04-06T07:34:51;99334.91;;;6.98;96.68
43153;BME280;28756;49.064;9.290;2023-04-06T07:37:17;99335.34;;;7.56;90.88
43153;BME280;28756;49.064;9.290;2023-04-06T07:39:43;99328.44;;;8.01;84.15
43153;BME280;28756;49.064;9.290;2023-04-06T07:42:08;99335.59;;;7.26;90.79
43153;BME280;28756;49.064;9.290;2023-04-06T07:44:34;99328.72;;;7.49;86.96
43153;BME280;28756;49.064;9.290;2023-04-06T07:47:00;99340.31;;;7.15;66.45
43153;BME280;28756;49.064;9.290;2023-04-06T07:49:26;99333.06;;;8.15;65.72
43153;BME280;28756;49.064;9.290;2023-04-06T07:51:51;99336.38;;;7.97;58.22
43153;BME280;28756;49.064;9.290;2023-04-06T07:54:17;99326.22;;;8.76;59.82
43153;BME280;28756;49.064;9.290;2023-04-06T07:56:43;99323.34;;;8.41;54.59
43153;BME280;28756;49.064;9.290;2023-04-06T07:59:08;99325.75;;;8.87;54.42
43153;BME280;28756;49.064;9.290;2023-04-06T08:01:34;99320.94;;;8.79;53.83
43153;BME280;28756;49.064;9.290;2023-04-06T08:04:00;99324.84;;;9.47;54.28
43153;BME280;28756;49.064;9.290;2023-04-06T08:06:28;99315.97;;;9.70;53.93
43153;BME280;28756;49.064;9.290;2023-04-06T08:08:54;99322.94;;;9.87;50.66
43153;BME280;28756;49.064;9.290;2023-04-06T08:11:20;99318.84;;;10.37;52.58
43153;BME280;28756;49.064;9.290;2023-04-06T08:13:46;99320.13;;;10.46;50.08
43153;BME280;28756;49.064;9.290;2023-04-06T08:16:12;99324.72;;;10.41;50.35
43153;BME280;28756;49.064;9.290;2023-04-06T08:18:37;99318.34;;;9.75;48.80
43153;BME280;28756;49.064;9.290;2023-04-06T08:21:03;99322.66;;;9.19;48.94
43153;BME280;28756;49.064;9.290;2023-04-06T08:23:29;99319.09;;;8.81;48.97
43153;BME280;28756;49.064;9.290;2023-04-06T08:25:54;99331.66;;;8.06;52.60
43153;BME280;28756;49.064;9.290;2023-04-06T08:28:21;99319.59;;;9.85;55.71
43153;BME280;28756;49.064;9.290;2023-04-06T08:30:47;99319.81;;;10.52;51.51
43153;BME280;28756;49.064;9.290;2023-04-06T08:33:13;99318.13;;;10.69;49.63
43153;BME280;28756;49.064;9.290;2023-04-06T08:35:39;99318.78;;;10.90;47.08
43153;BME280;28756;49.064;9.290;2023-04-06T08:38:05;99312.78;;;11.69;48.37
43153;BME280;28756;49.064;9.290;2023-04-06T08:40:39;99312.81;;;12.16;46.02
43153;BME280;28756;49.064;9.290;2023-04-06T08:43:14;99314.41;;;11.56;42.95
43153;BME280;28756;49.064;9.290;2023-04-06T08:45:41;99309.28;;;11.71;45.66
43153;BME280;28756;49.064;9.290;2023-04-06T08:48:08;99320.16;;;12.09;46.54
43153;BME280;28756;49.064;9.290;2023-04-06T08:50:35;99311.66;;;12.06;43.48
43153;BME280;28756;49.064;9.290;2023-04-06T08:53:01;99313.81;;;11.51;42.26
43153;BME280;28756;49.064;9.290;2023-04-06T08:55:27;99317.00;;;11.24;46.12
43153;BME280;28756;49.064;9.290;2023-04-06T08:57:55;99313.97;;;11.32;44.32
43153;BME280;28756;49.064;9.290;2023-04-06T09:00:21;99319.81;;;10.70;44.40
43153;BME280;28756;49.064;9.290;2023-04-06T09:02:49;99315.72;;;10.82;47.04
43153;BME280;28756;49.064;9.290;2023-04-06T09:05:15;99320.47;;;10.03;45.12
43153;BME280;28756;49.064;9.290;2023-04-06T09:07:41;99305.38;;;11.62;47.05
43153;BME280;28756;49.064;9.290;2023-04-06T09:10:08;99296.84;;;11.60;45.98
43153;BME280;28756;49.064;9.290;2023-04-06T09:12:34;99296.72;;;12.83;43.94
43153;BME280;28756;49.064;9.290;2023-04-06T09:15:02;99293.91;;;12.12;41.81
43153;BME280;28756;49.064;9.290;2023-04-06T09:17:30;99283.59;;;12.70;44.37
43153;BME280;28756;49.064;9.290;2023-04-06T09:19:59;99291.63;;;13.38;40.38
43153;BME280;28756;49.064;9.290;2023-04-06T09:22:25;99300.06;;;12.11;38.81
43153;BME280;28756;49.064;9.290;2023-04-06T09:24:53;99297.06;;;12.34;40.32
43153;BME280;28756;49.064;9.290;2023-04-06T09:27:34;99284.03;;;12.77;40.88
43153;BME280;28756;49.064;9.290;2023-04-06T09:30:11;99296.16;;;12.49;42.18
43153;BME280;28756;49.064;9.290;2023-04-06T09:32:50;99286.88;;;13.99;42.31
43153;BME280;28756;49.064;9.290;2023-04-06T09:35:16;99276.06;;;14.18;38.81
43153;BME280;28756;49.064;9.290;2023-04-06T09:37:43;99294.75;;;11.50;40.65
43153;BME280;28756;49.064;9.290;2023-04-06T09:40:10;99286.81;;;12.59;42.04
43153;BME280;28756;49.064;9.290;2023-04-06T09:42:36;99286.63;;;14.17;41.18
43153;BME280;28756;49.064;9.290;2023-04-06T09:45:03;99272.41;;;14.34;38.48
43153;BME280;28756;49.064;9.290;2023-04-06T09:47:31;99273.06;;;14.63;40.45
43153;BME280;28756;49.064;9.290;2023-04-06T09:49:59;99266.09;;;13.70;39.42
43153;BME280;28756;49.064;9.290;2023-04-06T09:52:51;99280.47;;;12.35;39.26
43153;BME280;28756;49.064;9.290;2023-04-06T09:55:41;99283.22;;;11.54;39.52
43153;BME280;28756;49.064;9.290;2023-04-06T09:58:11;99278.16;;;12.44;40.00
43153;BME280;28756;49.064;9.290;2023-04-06T10:01:05;99281.19;;;12.22;41.73
43153;BME280;28756;49.064;9.290;2023-04-06T10:04:02;99263.00;;;14.44;37.63
43153;BME280;28756;49.064;9.290;2023-04-06T10:06:33;99277.53;;;12.70;35.81
43153;BME280;28756;49.064;9.290;2023-04-06T10:09:03;99267.78;;;13.71;37.75
43153;BME280;28756;49.064;9.290;2023-04-06T10:11:30;99270.41;;;13.71;34.52
43153;BME280;28756;49.064;9.290;2023-04-06T10:13:57;99273.59;;;12.91;36.21
43153;BME280;28756;49.064;9.290;2023-04-06T10:16:22;99287.88;;;10.84;37.61
43153;BME280;28756;49.064;9.290;2023-04-06T10:18:55;99274.63;;;11.68;40.49
43153;BME280;28756;49.064;9.290;2023-04-06T10:21:25;99273.88;;;13.16;38.01
43153;BME280;28756;49.064;9.290;2023-04-06T10:23:59;99276.31;;;12.16;35.49
43153;BME280;28756;49.064;9.290;2023-04-06T10:26:25;99268.00;;;12.83;37.29
43153;BME280;28756;49.064;9.290;2023-04-06T10:28:51;99272.22;;;13.00;36.45
43153;BME280;28756;49.064;9.290;2023-04-06T10:31:28;99268.31;;;12.93;39.96
43153;BME280;28756;49.064;9.290;2023-04-06T10:34:00;99269.47;;;12.44;36.21
43153;BME280;28756;49.064;9.290;2023-04-06T10:36:36;99263.09;;;13.77;39.16
43153;BME280;28756;49.064;9.290;2023-04-06T10:39:05;99249.56;;;15.00;37.25
43153;BME280;28756;49.064;9.290;2023-04-06T10:41:44;99263.91;;;13.77;35.79
43153;BME280;28756;49.064;9.290;2023-04-06T10:44:24;99270.44;;;11.50;38.38
43153;BME280;28756;49.064;9.290;2023-04-06T10:46:58;99257.06;;;13.49;40.33
43153;BME280;28756;49.064;9.290;2023-04-06T10:49:26;99250.97;;;13.48;38.42
43153;BME280;28756;49.064;9.290;2023-04-06T10:51:56;99248.16;;;14.32;35.85
43153;BME280;28756;49.064;9.290;2023-04-06T10:54:25;99245.72;;;14.93;36.46
43153;BME280;28756;49.064;9.290;2023-04-06T10:56:51;99234.91;;;15.35;35.75
43153;BME280;28756;49.064;9.290;2023-04-06T10:59:22;99247.53;;;14.67;37.13
43153;BME280;28756;49.064;9.290;2023-04-06T11:01:49;99234.59;;;15.64;36.37
43153;BME280;28756;49.064;9.290;2023-04-06T11:04:19;99252.78;;;14.67;33.70
43153;BME280;28756;49.064;9.290;2023-04-06T11:06:49;99250.03;;;14.30;34.64
43153;BME280;28756;49.064;9.290;2023-04-06T11:09:33;99243.75;;;14.84;37.97
43153;BME280;28756;49.064;9.290;2023-04-06T11:12:02;99240.09;;;14.74;37.58
43153;BME280;28756;49.064;9.290;2023-04-06T11:18:08;99236.84;;;14.83;35.48
43153;BME280;28756;49.064;9.290;2023-04-06T11:20:35;99238.00;;;14.40;32.95
43153;BME280;28756;49.064;9.290;2023-04-06T11:23:00;99237.06;;;14.80;34.70
43153;BME280;28756;49.064;9.290;2023-04-06T11:25:27;99231.44;;;15.10;36.12
43153;BME280;28756;49.064;9.290;2023-04-06T11:27:53;99228.13;;;14.95;32.03
43153;BME280;28756;49.064;9.290;2023-04-06T11:30:19;99222.09;;;14.43;32.98
43153;BME280;28756;49.064;9.290;2023-04-06T11:32:45;99223.44;;;13.01;36.88
43153;BME280;28756;49.064;9.290;2023-04-06T11:35:22;99225.34;;;13.26;37.36
43153;BME280;28756;49.064;9.290;2023-04-06T11:37:49;99218.00;;;14.26;35.70
43153;BME280;28756;49.064;9.290;2023-04-06T11:40:20;99217.31;;;13.43;34.02
43153;BME280;28756;49.064;9.290;2023-04-06T11:42:52;99210.53;;;13.26;34.29
43153;BME280;28756;49.064;9.290;2023-04-06T11:45:19;99210.88;;;13.35;37.30
43153;BME280;28756;49.064;9.290;2023-04-06T11:47:44;99224.50;;;11.95;35.30
43153;BME280;28756;49.064;9.290;2023-04-06T11:50:13;99218.53;;;11.93;37.88
43153;BME280;28756;49.064;9.290;2023-04-06T11:52:40;99209.41;;;11.70;38.70
43153;BME280;28756;49.064;9.290;2023-04-06T11:55:18;99202.25;;;12.49;42.11
43153;BME280;28756;49.064;9.290;2023-04-06T11:57:44;99207.63;;;13.31;40.92
43153;BME280;28756;49.064;9.290;2023-04-06T12:00:11;99210.63;;;12.54;38.54
43153;BME280;28756;49.064;9.290;2023-04-06T12:02:38;99207.53;;;12.33;36.52
43153;BME280;28756;49.064;9.290;2023-04-06T12:05:05;99196.00;;;12.52;35.58
43153;BME280;28756;49.064;9.290;2023-04-06T12:07:32;99192.53;;;13.22;40.26
43153;BME280;28756;49.064;9.290;2023-04-06T12:10:01;99197.63;;;12.96;39.65
43153;BME280;28756;49.064;9.290;2023-04-06T12:12:28;99192.81;;;12.75;39.23
43153;BME280;28756;49.064;9.290;2023-04-06T12:14:55;99204.91;;;12.04;37.97
43153;BME280;28756;49.064;9.290;2023-04-06T12:17:21;99188.72;;;12.71;41.63
43153;BME280;28756;49.064;9.290;2023-04-06T12:19:47;99203.44;;;11.21;37.14
43153;BME280;28756;49.064;9.290;2023-04-06T12:22:12;99194.78;;;11.37;36.29
43153;BME280;28756;49.064;9.290;2023-04-06T12:24:38;99190.03;;;12.21;39.16
43153;BME280;28756;49.064;9.290;2023-04-06T12:27:04;99188.84;;;12.41;37.08
43153;BME280;28756;49.064;9.290;2023-04-06T12:29:30;99183.09;;;12.92;38.09
43153;BME280;28756;49.064;9.290;2023-04-06T12:31:56;99174.19;;;13.09;41.11
43153;BME280;28756;49.064;9.290;2023-04-06T12:34:21;99180.56;;;13.32;41.29
43153;BME280;28756;49.064;9.290;2023-04-06T12:36:47;99176.41;;;13.15;39.13
43153;BME280;28756;49.064;9.290;2023-04-06T12:42:54;99177.66;;;13.64;37.89
43153;BME280;28756;49.064;9.290;2023-04-06T12:45:20;99176.69;;;13.52;34.62
43153;BME280;28756;49.064;9.290;2023-04-06T12:47:45;99172.38;;;13.92;37.88
43153;BME280;28756;49.064;9.290;2023-04-06T12:50:11;99175.06;;;12.95;34.30
43153;BME280;28756;49.064;9.290;2023-04-06T12:52:37;99183.69;;;12.25;33.81
43153;BME280;28756;49.064;9.290;2023-04-06T12:55:03;99173.91;;;12.28;35.33
43153;BME280;28756;49.064;9.290;2023-04-06T12:57:30;99164.50;;;12.69;36.31
43153;BME280;28756;49.064;9.290;2023-04-06T12:59:57;99156.78;;;12.53;35.49
43153;BME280;28756;49.064;9.290;2023-04-06T13:02:23;99161.59;;;11.71;35.69
43153;BME280;28756;49.064;9.290;2023-04-06T13:04:50;99162.00;;;11.79;36.31